sensor_id;sensor_type;location;lat;lon;timestamp;pressure;altitude;pressure_sealevel;temperature;humidity
54465;BME280;40374;49.480;20.016;2023-04-19T00:02:15;95017.13;;;10.48;100.00
54465;BME280;40374;49.480;20.016;2023-04-19T00:04:45;95016.06;;;10.39;100.00
54465;BME280;40374;49.480;20.016;2023-04-19T00:07:14;95007.47;;;10.37;100.00
54465;BME280;40374;49.480;20.016;2023-04-19T00:09:43;95009.66;;;10.35;100.00
54465;BME280;40374;49.480;20.016;2023-04-19T00:12:10;95010.53;;;10.15;100.00
54465;BME280;40374;49.480;20.016;2023-04-19T00:14:38;95001.44;;;10.06;100.00
54465;BME280;40374;49.480;20.016;2023-04-19T00:17:05;95008.94;;;10.09;100.00
54465;BME280;40374;49.480;20.016;2023-04-19T00:19:32;95002.25;;;10.06;100.00
54465;BME280;40374;49.480;20.016;2023-04-19T00:22:00;94997.19;;;9.89;100.00
54465;BME280;40374;49.480;20.016;2023-04-19T00:24:27;94981.41;;;9.72;100.00
54465;BME280;40374;49.480;20.016;2023-04-19T00:26:57;94996.97;;;9.81;100.00
54465;BME280;40374;49.480;20.016;2023-04-19T00:29:25;94978.19;;;9.70;100.00
54465;BME280;40374;49.480;20.016;2023-04-19T00:31:55;94982.09;;;10.04;100.00
54465;BME280;40374;49.480;20.016;2023-04-19T00:34:25;94990.69;;;10.01;100.00
54465;BME280;40374;49.480;20.016;2023-04-19T00:36:55;94979.81;;;10.36;100.00
54465;BME280;40374;49.480;20.016;2023-04-19T00:39:22;94981.69;;;10.31;100.00
54465;BME280;40374;49.480;20.016;2023-04-19T00:41:50;94965.38;;;10.17;100.00
54465;BME280;40374;49.480;20.016;2023-04-19T00:44:19;94974.75;;;10.20;100.00
54465;BME280;40374;49.480;20.016;2023-04-19T00:46:47;94957.09;;;10.08;100.00
54465;BME280;40374;49.480;20.016;2023-04-19T00:49:19;94967.25;;;10.11;100.00
54465;BME280;40374;49.480;20.016;2023-04-19T00:51:49;94959.25;;;10.06;100.00
54465;BME280;40374;49.480;20.016;2023-04-19T00:54:18;94967.31;;;10.01;100.00
54465;BME280;40374;49.480;20.016;2023-04-19T00:56:48;94953.91;;;9.96;100.00
54465;BME280;40374;49.480;20.016;2023-04-19T00:59:17;94950.44;;;9.90;100.00
54465;BME280;40374;49.480;20.016;2023-04-19T01:01:45;94938.75;;;9.61;100.00
54465;BME280;40374;49.480;20.016;2023-04-19T01:04:12;94934.47;;;9.60;100.00
54465;BME280;40374;49.480;20.016;2023-04-19T01:06:41;94936.88;;;9.56;100.00
54465;BME280;40374;49.480;20.016;2023-04-19T01:09:10;94935.50;;;9.64;100.00
54465;BME280;40374;49.480;20.016;2023-04-19T01:11:40;94939.03;;;9.54;100.00
54465;BME280;40374;49.480;20.016;2023-04-19T01:14:09;94939.81;;;9.65;100.00
54465;BME280;40374;49.480;20.016;2023-04-19T01:16:37;94926.16;;;9.41;100.00
54465;BME280;40374;49.480;20.016;2023-04-19T01:19:07;94937.44;;;9.43;100.00
54465;BME280;40374;49.480;20.016;2023-04-19T01:21:37;94933.44;;;9.40;100.00
54465;BME280;40374;49.480;20.016;2023-04-19T01:24:06;94925.94;;;9.37;100.00
54465;BME280;40374;49.480;20.016;2023-04-19T01:26:33;94927.22;;;9.45;100.00
54465;BME280;40374;49.480;20.016;2023-04-19T01:29:02;94922.75;;;9.25;100.00
54465;BME280;40374;49.480;20.016;2023-04-19T01:31:31;94928.41;;;9.18;100.00
54465;BME280;40374;49.480;20.016;2023-04-19T01:33:59;94917.69;;;9.08;100.00
54465;BME280;40374;49.480;20.016;2023-04-19T01:36:26;94917.69;;;9.08;100.00
54465;BME280;40374;49.480;20.016;2023-04-19T01:38:54;94913.34;;;9.17;100.00
54465;BME280;40374;49.480;20.016;2023-04-19T01:41:22;94910.38;;;9.24;100.00
54465;BME280;40374;49.480;20.016;2023-04-19T01:43:53;94898.34;;;9.06;100.00
54465;BME280;40374;49.480;20.016;2023-04-19T01:46:20;94902.09;;;9.15;100.00
54465;BME280;40374;49.480;20.016;2023-04-19T01:48:48;94901.81;;;9.27;100.00
54465;BME280;40374;49.480;20.016;2023-04-19T01:51:15;94899.41;;;9.15;100.00
54465;BME280;40374;49.480;20.016;2023-04-19T01:53:43;94895.41;;;9.18;100.00
54465;BME280;40374;49.480;20.016;2023-04-19T01:56:10;94883.84;;;9.07;100.00
54465;BME280;40374;49.480;20.016;2023-04-19T01:58:38;94874.47;;;9.14;100.00
54465;BME280;40374;49.480;20.016;2023-04-19T02:01:05;94891.06;;;9.22;100.00
54465;BME280;40374;49.480;20.016;2023-04-19T02:03:33;94895.84;;;9.40;100.00
54465;BME280;40374;49.480;20.016;2023-04-19T02:06:01;94890.19;;;9.52;100.00
54465;BME280;40374;49.480;20.016;2023-04-19T02:08:28;94889.09;;;9.53;100.00
54465;BME280;40374;49.480;20.016;2023-04-19T02:10:56;94873.00;;;9.48;100.00
54465;BME280;40374;49.480;20.016;2023-04-19T02:13:24;94882.91;;;9.58;100.00
54465;BME280;40374;49.480;20.016;2023-04-19T02:15:51;94879.19;;;9.48;100.00
54465;BME280;40374;49.480;20.016;2023-04-19T02:18:19;94877.78;;;9.61;100.00
54465;BME280;40374;49.480;20.016;2023-04-19T02:20:46;94868.69;;;9.52;100.00
54465;BME280;40374;49.480;20.016;2023-04-19T02:23:14;94880.47;;;9.61;100.00
54465;BME280;40374;49.480;20.016;2023-04-19T02:25:41;94860.03;;;9.65;100.00
54465;BME280;40374;49.480;20.016;2023-04-19T02:28:08;94866.38;;;9.85;100.00
54465;BME280;40374;49.480;20.016;2023-04-19T02:30:36;94872.63;;;9.75;100.00
54465;BME280;40374;49.480;20.016;2023-04-19T02:33:04;94861.97;;;9.60;100.00
54465;BME280;40374;49.480;20.016;2023-04-19T02:35:33;94849.88;;;9.57;100.00
54465;BME280;40374;49.480;20.016;2023-04-19T02:38:02;94866.25;;;9.61;100.00
54465;BME280;40374;49.480;20.016;2023-04-19T02:40:30;94856.25;;;9.71;100.00
54465;BME280;40374;49.480;20.016;2023-04-19T02:42:58;94843.88;;;9.81;100.00
54465;BME280;40374;49.480;20.016;2023-04-19T02:45:25;94848.63;;;9.89;100.00
54465;BME280;40374;49.480;20.016;2023-04-19T02:47:54;94857.78;;;9.88;100.00
54465;BME280;40374;49.480;20.016;2023-04-19T02:50:22;94856.59;;;9.60;100.00
54465;BME280;40374;49.480;20.016;2023-04-19T02:52:50;94848.47;;;9.70;100.00
54465;BME280;40374;49.480;20.016;2023-04-19T02:55:19;94852.78;;;9.71;100.00
54465;BME280;40374;49.480;20.016;2023-04-19T02:57:53;94863.31;;;9.52;100.00
54465;BME280;40374;49.480;20.016;2023-04-19T03:00:20;94848.28;;;9.51;100.00
54465;BME280;40374;49.480;20.016;2023-04-19T03:03:00;94844.31;;;9.43;100.00
54465;BME280;40374;49.480;20.016;2023-04-19T03:05:32;94847.53;;;9.40;100.00
54465;BME280;40374;49.480;20.016;2023-04-19T03:08:00;94839.44;;;9.50;100.00
54465;BME280;40374;49.480;20.016;2023-04-19T03:10:27;94837.31;;;9.42;100.00
54465;BME280;40374;49.480;20.016;2023-04-19T03:12:55;94833.00;;;9.46;100.00
54465;BME280;40374;49.480;20.016;2023-04-19T03:15:22;94823.63;;;9.44;100.00
54465;BME280;40374;49.480;20.016;2023-04-19T03:17:50;94826.22;;;9.59;100.00
54465;BME280;40374;49.480;20.016;2023-04-19T03:20:19;94809.19;;;9.29;100.00
54465;BME280;40374;49.480;20.016;2023-04-19T03:22:47;94816.19;;;9.30;100.00
54465;BME280;40374;49.480;20.016;2023-04-19T03:25:15;94824.69;;;9.48;100.00
54465;BME280;40374;49.480;20.016;2023-04-19T03:27:49;94819.81;;;9.60;100.00
54465;BME280;40374;49.480;20.016;2023-04-19T03:30:30;94813.38;;;9.51;100.00
54465;BME280;40374;49.480;20.016;2023-04-19T03:32:57;94811.31;;;9.38;100.00
54465;BME280;40374;49.480;20.016;2023-04-19T03:35:26;94808.19;;;9.20;100.00
54465;BME280;40374;49.480;20.016;2023-04-19T03:37:59;94805.97;;;9.32;100.00
54465;BME280;40374;49.480;20.016;2023-04-19T03:40:26;94797.22;;;9.06;100.00
54465;BME280;40374;49.480;20.016;2023-04-19T03:42:54;94815.69;;;9.18;100.00
54465;BME280;40374;49.480;20.016;2023-04-19T03:45:26;94809.75;;;9.26;100.00
54465;BME280;40374;49.480;20.016;2023-04-19T03:47:53;94804.59;;;9.40;100.00
54465;BME280;40374;49.480;20.016;2023-04-19T03:50:21;94800.53;;;9.48;100.00
54465;BME280;40374;49.480;20.016;2023-04-19T03:52:52;94809.59;;;9.57;100.00
54465;BME280;40374;49.480;20.016;2023-04-19T03:55:20;94804.28;;;9.52;100.00
54465;BME280;40374;49.480;20.016;2023-04-19T03:57:48;94789.81;;;9.43;100.00
54465;BME280;40374;49.480;20.016;2023-04-19T04:00:24;94803.75;;;9.50;100.00
54465;BME280;40374;49.480;20.016;2023-04-19T04:02:57;94801.28;;;9.59;100.00
54465;BME280;40374;49.480;20.016;2023-04-19T04:05:26;94779.41;;;9.26;100.00
54465;BME280;40374;49.480;20.016;2023-04-19T04:07:54;94781.34;;;9.15;100.00
54465;BME280;40374;49.480;20.016;2023-04-19T04:10:23;94780.78;;;9.28;100.00
54465;BME280;40374;49.480;20.016;2023-04-19T04:12:51;94784.56;;;9.22;100.00
54465;BME280;40374;49.480;20.016;2023-04-19T04:15:27;94791.84;;;9.11;100.00
54465;BME280;40374;49.480;20.016;2023-04-19T04:17:56;94781.56;;;9.24;100.00
54465;BME280;40374;49.480;20.016;2023-04-19T04:20:25;94769.28;;;9.18;100.00
54465;BME280;40374;49.480;20.016;2023-04-19T04:22:59;94782.81;;;9.47;100.00
54465;BME280;40374;49.480;20.016;2023-04-19T04:25:26;94772.06;;;9.52;100.00
54465;BME280;40374;49.480;20.016;2023-04-19T04:27:57;94777.97;;;9.49;100.00
54465;BME280;40374;49.480;20.016;2023-04-19T04:30:25;94782.84;;;9.42;100.00
54465;BME280;40374;49.480;20.016;2023-04-19T04:32:56;94783.59;;;9.52;100.00
54465;BME280;40374;49.480;20.016;2023-04-19T04:35:25;94783.94;;;9.35;100.00
54465;BME280;40374;49.480;20.016;2023-04-19T04:38:01;94787.72;;;9.34;100.00
54465;BME280;40374;49.480;20.016;2023-04-19T04:40:40;94766.25;;;9.34;100.00
54465;BME280;40374;49.480;20.016;2023-04-19T04:43:09;94773.78;;;9.27;100.00
54465;BME280;40374;49.480;20.016;2023-04-19T04:45:37;94783.72;;;9.22;100.00
54465;BME280;40374;49.480;20.016;2023-04-19T04:48:05;94781.34;;;9.15;100.00
54465;BME280;40374;49.480;20.016;2023-04-19T04:50:32;94780.25;;;9.26;100.00
54465;BME280;40374;49.480;20.016;2023-04-19T04:53:00;94777.00;;;9.29;100.00
54465;BME280;40374;49.480;20.016;2023-04-19T04:55:31;94775.97;;;9.20;100.00
54465;BME280;40374;49.480;20.016;2023-04-19T04:57:59;94773.81;;;9.17;100.00
54465;BME280;40374;49.480;20.016;2023-04-19T05:00:36;94764.94;;;9.22;100.00
54465;BME280;40374;49.480;20.016;2023-04-19T05:03:06;94772.66;;;9.39;100.00
54465;BME280;40374;49.480;20.016;2023-04-19T05:05:38;94748.56;;;9.28;100.00
54465;BME280;40374;49.480;20.016;2023-04-19T05:08:06;94752.88;;;9.19;100.00
54465;BME280;40374;49.480;20.016;2023-04-19T05:10:33;94765.72;;;9.27;100.00
54465;BME280;40374;49.480;20.016;2023-04-19T05:13:02;94760.88;;;9.29;100.00
54465;BME280;40374;49.480;20.016;2023-04-19T05:15:30;94761.25;;;9.57;100.00
54465;BME280;40374;49.480;20.016;2023-04-19T05:17:58;94761.03;;;9.53;100.00
54465;BME280;40374;49.480;20.016;2023-04-19T05:20:26;94755.88;;;9.62;100.00
54465;BME280;40374;49.480;20.016;2023-04-19T05:23:02;94751.31;;;9.63;100.00
54465;BME280;40374;49.480;20.016;2023-04-19T05:25:32;94754.59;;;9.89;100.00
54465;BME280;40374;49.480;20.016;2023-04-19T05:28:00;94752.09;;;9.63;100.00
54465;BME280;40374;49.480;20.016;2023-04-19T05:30:37;94751.00;;;9.69;100.00
54465;BME280;40374;49.480;20.016;2023-04-19T05:33:05;94753.09;;;9.78;100.00
54465;BME280;40374;49.480;20.016;2023-04-19T05:35:34;94755.09;;;9.96;100.00
54465;BME280;40374;49.480;20.016;2023-04-19T05:38:02;94751.31;;;9.63;100.00
54465;BME280;40374;49.480;20.016;2023-04-19T05:40:29;94741.38;;;9.63;100.00
54465;BME280;40374;49.480;20.016;2023-04-19T05:42:57;94740.88;;;9.56;100.00
54465;BME280;40374;49.480;20.016;2023-04-19T05:45:25;94747.63;;;9.48;100.00
54465;BME280;40374;49.480;20.016;2023-04-19T05:47:53;94742.78;;;9.50;100.00
54465;BME280;40374;49.480;20.016;2023-04-19T05:50:46;94724.50;;;9.58;100.00
54465;BME280;40374;49.480;20.016;2023-04-19T05:53:44;94733.63;;;9.96;100.00
54465;BME280;40374;49.480;20.016;2023-04-19T05:56:12;94735.13;;;10.07;100.00
54465;BME280;40374;49.480;20.016;2023-04-19T05:58:40;94743.16;;;10.12;100.00
54465;BME280;40374;49.480;20.016;2023-04-19T06:01:07;94744.09;;;10.27;100.00
54465;BME280;40374;49.480;20.016;2023-04-19T06:03:35;94723.09;;;10.58;100.00
54465;BME280;40374;49.480;20.016;2023-04-19T06:06:03;94732.16;;;10.67;100.00
54465;BME280;40374;49.480;20.016;2023-04-19T06:08:30;94730.09;;;10.83;100.00
54465;BME280;40374;49.480;20.016;2023-04-19T06:10:58;94724.25;;;11.00;100.00
54465;BME280;40374;49.480;20.016;2023-04-19T06:13:41;94728.97;;;11.32;100.00
54465;BME280;40374;49.480;20.016;2023-04-19T06:16:11;94727.34;;;11.50;100.00
54465;BME280;40374;49.480;20.016;2023-04-19T06:18:39;94720.72;;;11.81;100.00
54465;BME280;40374;49.480;20.016;2023-04-19T06:21:09;94721.81;;;11.98;100.00
54465;BME280;40374;49.480;20.016;2023-04-19T06:23:37;94729.19;;;12.26;100.00
54465;BME280;40374;49.480;20.016;2023-04-19T06:26:04;94732.22;;;12.38;100.00
54465;BME280;40374;49.480;20.016;2023-04-19T06:28:32;94717.16;;;12.51;100.00
54465;BME280;40374;49.480;20.016;2023-04-19T06:31:01;94715.78;;;12.81;100.00
54465;BME280;40374;49.480;20.016;2023-04-19T06:33:31;94727.97;;;13.20;100.00
54465;BME280;40374;49.480;20.016;2023-04-19T06:35:59;94725.56;;;13.32;100.00
54465;BME280;40374;49.480;20.016;2023-04-19T06:38:26;94728.34;;;13.55;100.00
54465;BME280;40374;49.480;20.016;2023-04-19T06:40:54;94722.66;;;13.79;100.00
54465;BME280;40374;49.480;20.016;2023-04-19T06:43:22;94726.72;;;14.13;100.00
54465;BME280;40374;49.480;20.016;2023-04-19T06:45:57;94731.53;;;14.16;100.00
54465;BME280;40374;49.480;20.016;2023-04-19T06:48:25;94726.56;;;14.09;100.00
54465;BME280;40374;49.480;20.016;2023-04-19T06:50:54;94724.94;;;14.08;100.00
54465;BME280;40374;49.480;20.016;2023-04-19T06:53:22;94711.84;;;14.24;100.00
54465;BME280;40374;49.480;20.016;2023-04-19T06:55:56;94712.97;;;14.54;100.00
54465;BME280;40374;49.480;20.016;2023-04-19T06:58:24;94715.44;;;14.65;100.00
54465;BME280;40374;49.480;20.016;2023-04-19T07:00:51;94716.47;;;14.86;100.00
54465;BME280;40374;49.480;20.016;2023-04-19T07:03:20;94704.13;;;15.02;100.00
54465;BME280;40374;49.480;20.016;2023-04-19T07:05:48;94713.78;;;15.43;100.00
54465;BME280;40374;49.480;20.016;2023-04-19T07:08:15;94707.56;;;15.43;100.00
54465;BME280;40374;49.480;20.016;2023-04-19T07:10:43;94694.00;;;15.43;100.00
54465;BME280;40374;49.480;20.016;2023-04-19T07:13:10;94706.75;;;15.25;100.00
54465;BME280;40374;49.480;20.016;2023-04-19T07:15:38;94701.38;;;14.94;100.00
54465;BME280;40374;49.480;20.016;2023-04-19T07:18:06;94699.63;;;14.89;100.00
54465;BME280;40374;49.480;20.016;2023-04-19T07:20:33;94705.56;;;14.60;100.00
54465;BME280;40374;49.480;20.016;2023-04-19T07:23:01;94707.06;;;14.52;100.00
54465;BME280;40374;49.480;20.016;2023-04-19T07:25:28;94698.38;;;14.33;100.00
54465;BME280;40374;49.480;20.016;2023-04-19T07:27:56;94705.88;;;14.36;100.00
54465;BME280;40374;49.480;20.016;2023-04-19T07:30:23;94706.00;;;14.31;100.00
54465;BME280;40374;49.480;20.016;2023-04-19T07:32:53;94698.00;;;14.26;100.00
54465;BME280;40374;49.480;20.016;2023-04-19T07:35:24;94685.91;;;14.23;100.00
54465;BME280;40374;49.480;20.016;2023-04-19T07:37:52;94696.31;;;14.07;100.00
54465;BME280;40374;49.480;20.016;2023-04-19T07:40:19;94702.22;;;14.09;100.00
54465;BME280;40374;49.480;20.016;2023-04-19T07:42:47;94701.88;;;14.11;100.00
54465;BME280;40374;49.480;20.016;2023-04-19T07:45:15;94701.25;;;14.05;100.00
54465;BME280;40374;49.480;20.016;2023-04-19T07:47:42;94690.97;;;13.93;100.00
54465;BME280;40374;49.480;20.016;2023-04-19T07:50:10;94696.91;;;14.04;100.00
54465;BME280;40374;49.480;20.016;2023-04-19T07:52:39;94698.19;;;14.07;100.00
54465;BME280;40374;49.480;20.016;2023-04-19T07:55:06;94701.84;;;14.02;100.00
54465;BME280;40374;49.480;20.016;2023-04-19T07:57:34;94701.81;;;13.79;100.00
54465;BME280;40374;49.480;20.016;2023-04-19T08:00:02;94694.22;;;13.81;100.00
54465;BME280;40374;49.480;20.016;2023-04-19T08:02:44;94691.59;;;13.90;100.00
54465;BME280;40374;49.480;20.016;2023-04-19T08:05:14;94697.66;;;13.73;100.00
54465;BME280;40374;49.480;20.016;2023-04-19T08:07:44;94692.50;;;13.63;100.00
54465;BME280;40374;49.480;20.016;2023-04-19T08:10:12;94682.00;;;13.48;100.00
54465;BME280;40374;49.480;20.016;2023-04-19T08:12:39;94689.56;;;13.37;100.00
54465;BME280;40374;49.480;20.016;2023-04-19T08:15:27;94690.78;;;13.17;100.00
54465;BME280;40374;49.480;20.016;2023-04-19T08:18:15;94693.38;;;13.36;100.00
54465;BME280;40374;49.480;20.016;2023-04-19T08:20:42;94693.03;;;13.37;100.00
54465;BME280;40374;49.480;20.016;2023-04-19T08:23:13;94695.59;;;13.56;100.00
54465;BME280;40374;49.480;20.016;2023-04-19T08:25:51;94704.66;;;13.74;100.00
54465;BME280;40374;49.480;20.016;2023-04-19T08:28:19;94700.34;;;13.96;100.00
54465;BME280;40374;49.480;20.016;2023-04-19T08:30:46;94701.81;;;13.79;100.00
54465;BME280;40374;49.480;20.016;2023-04-19T08:33:14;94706.41;;;13.93;100.00
54465;BME280;40374;49.480;20.016;2023-04-19T08:35:42;94706.00;;;13.86;100.00
54465;BME280;40374;49.480;20.016;2023-04-19T08:38:11;94718.38;;;13.78;100.00
54465;BME280;40374;49.480;20.016;2023-04-19T08:40:46;94715.03;;;13.81;100.00
54465;BME280;40374;49.480;20.016;2023-04-19T08:43:18;94712.63;;;13.57;100.00
54465;BME280;40374;49.480;20.016;2023-04-19T08:45:50;94712.22;;;13.50;100.00
54465;BME280;40374;49.480;20.016;2023-04-19T08:48:17;94714.84;;;13.55;100.00
54465;BME280;40374;49.480;20.016;2023-04-19T08:50:45;94706.06;;;13.22;100.00
54465;BME280;40374;49.480;20.016;2023-04-19T08:53:34;94711.28;;;13.04;100.00
54465;BME280;40374;49.480;20.016;2023-04-19T08:56:02;94707.28;;;12.88;100.00
54465;BME280;40374;49.480;20.016;2023-04-19T08:58:47;94706.38;;;12.65;100.00
54465;BME280;40374;49.480;20.016;2023-04-19T09:01:17;94701.97;;;12.83;100.00
54465;BME280;40374;49.480;20.016;2023-04-19T09:04:03;94707.38;;;12.96;100.00
54465;BME280;40374;49.480;20.016;2023-04-19T09:06:52;94712.97;;;12.86;100.00
54465;BME280;40374;49.480;20.016;2023-04-19T09:09:21;94701.19;;;12.82;100.00
54465;BME280;40374;49.480;20.016;2023-04-19T09:11:52;94711.19;;;12.82;100.00
54465;BME280;40374;49.480;20.016;2023-04-19T09:14:21;94723.38;;;12.79;100.00
54465;BME280;40374;49.480;20.016;2023-04-19T09:16:48;94714.78;;;12.77;100.00
54465;BME280;40374;49.480;20.016;2023-04-19T09:19:19;94719.88;;;12.78;100.00
54465;BME280;40374;49.480;20.016;2023-04-19T09:21:51;94717.78;;;12.75;100.00
54465;BME280;40374;49.480;20.016;2023-04-19T09:24:36;94710.97;;;12.78;100.00
54465;BME280;40374;49.480;20.016;2023-04-19T09:27:33;94718.78;;;12.79;100.00
54465;BME280;40374;49.480;20.016;2023-04-19T09:30:03;94723.66;;;12.64;100.00
54465;BME280;40374;49.480;20.016;2023-04-19T09:32:45;94718.00;;;12.79;100.00
54465;BME280;40374;49.480;20.016;2023-04-19T09:35:13;94721.47;;;12.93;100.00
54465;BME280;40374;49.480;20.016;2023-04-19T09:37:40;94716.78;;;12.99;100.00
54465;BME280;40374;49.480;20.016;2023-04-19T09:40:23;94718.97;;;13.11;100.00
54465;BME280;40374;49.480;20.016;2023-04-19T09:42:51;94723.59;;;12.96;100.00
54465;BME280;40374;49.480;20.016;2023-04-19T09:45:22;94728.19;;;12.96;100.00
54465;BME280;40374;49.480;20.016;2023-04-19T09:48:03;94728.00;;;13.06;100.00
54465;BME280;40374;49.480;20.016;2023-04-19T09:50:31;94730.88;;;13.10;100.00
54465;BME280;40374;49.480;20.016;2023-04-19T09:53:12;94730.47;;;12.89;100.00
54465;BME280;40374;49.480;20.016;2023-04-19T09:55:40;94715.38;;;12.88;100.00
54465;BME280;40374;49.480;20.016;2023-04-19T09:58:26;94738.47;;;12.80;100.00
54465;BME280;40374;49.480;20.016;2023-04-19T10:01:04;94735.56;;;12.63;100.00
54465;BME280;40374;49.480;20.016;2023-04-19T10:03:43;94742.66;;;12.58;100.00
54465;BME280;40374;49.480;20.016;2023-04-19T10:06:18;94736.53;;;12.39;100.00
54465;BME280;40374;49.480;20.016;2023-04-19T10:08:51;94740.75;;;12.26;100.00
54465;BME280;40374;49.480;20.016;2023-04-19T10:11:20;94736.69;;;12.29;100.00
54465;BME280;40374;49.480;20.016;2023-04-19T10:13:55;94733.41;;;12.32;100.00
54465;BME280;40374;49.480;20.016;2023-04-19T10:16:24;94739.91;;;12.31;100.00
54465;BME280;40374;49.480;20.016;2023-04-19T10:18:53;94739.13;;;12.44;100.00
54465;BME280;40374;49.480;20.016;2023-04-19T10:21:22;94740.91;;;12.35;100.00
54465;BME280;40374;49.480;20.016;2023-04-19T10:23:51;94737.25;;;12.58;100.00
54465;BME280;40374;49.480;20.016;2023-04-19T10:26:22;94736.75;;;12.56;100.00
54465;BME280;40374;49.480;20.016;2023-04-19T10:28:49;94738.34;;;12.57;100.00
54465;BME280;40374;49.480;20.016;2023-04-19T10:31:19;94735.13;;;12.55;100.00
54465;BME280;40374;49.480;20.016;2023-04-19T10:33:49;94736.03;;;12.51;100.00
54465;BME280;40374;49.480;20.016;2023-04-19T10:36:20;94737.31;;;12.39;100.00
54465;BME280;40374;49.480;20.016;2023-04-19T10:38:49;94725.41;;;12.41;100.00
54465;BME280;40374;49.480;20.016;2023-04-19T10:41:22;94733.50;;;12.27;100.00
54465;BME280;40374;49.480;20.016;2023-04-19T10:48:53;94729.69;;;12.28;100.00
54465;BME280;40374;49.480;20.016;2023-04-19T10:51:32;94725.75;;;12.39;100.00
54465;BME280;40374;49.480;20.016;2023-04-19T10:54:01;94721.22;;;12.34;100.00
54465;BME280;40374;49.480;20.016;2023-04-19T11:01:43;94730.97;;;12.63;100.00
54465;BME280;40374;49.480;20.016;2023-04-19T11:04:12;94714.22;;;12.33;100.00
54465;BME280;40374;49.480;20.016;2023-04-19T11:09:47;94721.59;;;12.28;100.00
54465;BME280;40374;49.480;20.016;2023-04-19T11:12:16;94709.72;;;12.29;100.00
54465;BME280;40374;49.480;20.016;2023-04-19T11:14:46;94709.81;;;12.24;100.00
54465;BME280;40374;49.480;20.016;2023-04-19T11:17:16;94703.50;;;12.14;100.00
54465;BME280;40374;49.480;20.016;2023-04-19T11:19:52;94718.44;;;12.39;100.00
54465;BME280;40374;49.480;20.016;2023-04-19T11:25:13;94715.97;;;12.57;100.00
54465;BME280;40374;49.480;20.016;2023-04-19T11:27:44;94708.78;;;12.52;100.00
54465;BME280;40374;49.480;20.016;2023-04-19T11:30:14;94723.47;;;12.74;100.00
54465;BME280;40374;49.480;20.016;2023-04-19T11:32:46;94710.56;;;12.57;100.00
54465;BME280;40374;49.480;20.016;2023-04-19T11:35:18;94715.38;;;12.74;100.00
54465;BME280;40374;49.480;20.016;2023-04-19T11:37:46;94720.19;;;12.77;100.00
54465;BME280;40374;49.480;20.016;2023-04-19T11:40:15;94710.41;;;12.81;100.00
54465;BME280;40374;49.480;20.016;2023-04-19T11:42:44;94712.88;;;12.64;100.00
54465;BME280;40374;49.480;20.016;2023-04-19T11:45:23;94711.56;;;12.61;100.00
54465;BME280;40374;49.480;20.016;2023-04-19T11:47:59;94711.50;;;12.66;100.00
54465;BME280;40374;49.480;20.016;2023-04-19T11:50:37;94714.97;;;12.94;100.00
54465;BME280;40374;49.480;20.016;2023-04-19T11:53:13;94718.66;;;12.85;100.00
54465;BME280;40374;49.480;20.016;2023-04-19T11:55:52;94716.19;;;12.88;100.00
54465;BME280;40374;49.480;20.016;2023-04-19T11:58:28;94718.78;;;12.93;100.00
54465;BME280;40374;49.480;20.016;2023-04-19T12:01:03;94719.38;;;12.90;100.00
54465;BME280;40374;49.480;20.016;2023-04-19T12:03:38;94719.28;;;12.95;100.00
54465;BME280;40374;49.480;20.016;2023-04-19T12:06:10;94715.88;;;13.04;100.00
54465;BME280;40374;49.480;20.016;2023-04-19T12:08:42;94718.28;;;12.77;100.00
54465;BME280;40374;49.480;20.016;2023-04-19T12:11:10;94709.47;;;12.72;100.00
54465;BME280;40374;49.480;20.016;2023-04-19T12:13:38;94710.59;;;12.71;100.00
54465;BME280;40374;49.480;20.016;2023-04-19T12:16:07;94729.06;;;12.77;100.00
54465;BME280;40374;49.480;20.016;2023-04-19T12:18:46;94724.19;;;12.79;100.00
54465;BME280;40374;49.480;20.016;2023-04-19T12:21:30;94722.69;;;12.87;100.00
54465;BME280;40374;49.480;20.016;2023-04-19T12:24:00;94722.78;;;12.82;100.00
54465;BME280;40374;49.480;20.016;2023-04-19T12:26:29;94727.97;;;12.78;100.00
54465;BME280;40374;49.480;20.016;2023-04-19T12:28:58;94726.09;;;12.79;100.00
54465;BME280;40374;49.480;20.016;2023-04-19T12:31:26;94730.16;;;12.63;100.00
54465;BME280;40374;49.480;20.016;2023-04-19T12:33:54;94721.25;;;12.48;100.00
54465;BME280;40374;49.480;20.016;2023-04-19T12:36:21;94732.38;;;12.61;100.00
54465;BME280;40374;49.480;20.016;2023-04-19T12:38:49;94721.97;;;12.54;100.00
54465;BME280;40374;49.480;20.016;2023-04-19T12:41:17;94733.13;;;12.47;100.00
54465;BME280;40374;49.480;20.016;2023-04-19T12:43:45;94731.66;;;12.55;100.00
54465;BME280;40374;49.480;20.016;2023-04-19T12:46:12;94713.13;;;12.34;100.00
54465;BME280;40374;49.480;20.016;2023-04-19T12:48:40;94728.78;;;12.32;100.00
54465;BME280;40374;49.480;20.016;2023-04-19T12:51:07;94728.28;;;12.16;100.00
54465;BME280;40374;49.480;20.016;2023-04-19T12:53:35;94727.53;;;12.11;100.00
54465;BME280;40374;49.480;20.016;2023-04-19T12:56:03;94733.22;;;12.09;100.00
54465;BME280;40374;49.480;20.016;2023-04-19T12:58:31;94723.31;;;11.91;100.00
54465;BME280;40374;49.480;20.016;2023-04-19T13:01:01;94724.63;;;12.07;100.00
54465;BME280;40374;49.480;20.016;2023-04-19T13:03:29;94724.88;;;11.92;100.00
54465;BME280;40374;49.480;20.016;2023-04-19T13:05:59;94726.31;;;12.03;100.00
54465;BME280;40374;49.480;20.016;2023-04-19T13:08:27;94731.66;;;11.89;100.00
54465;BME280;40374;49.480;20.016;2023-04-19T13:11:12;94726.41;;;11.79;100.00
54465;BME280;40374;49.480;20.016;2023-04-19T13:13:40;94728.88;;;11.75;100.00
54465;BME280;40374;49.480;20.016;2023-04-19T13:16:07;94723.22;;;11.58;100.00